Time;durP1;ratioP1;P1;durP2;ratioP2;P2;SDS_P1;SDS_P2;PMS_P1;PMS_P2;Temp;Humidity;BMP_temperature;BMP_pressure;BME280_temperature;BME280_humidity;BME280_pressure;Samples;Min_cycle;Max_cycle;Signal;HPM_P1;HPM_P2
2021/04/14 00:02:04;;;;;;;10.67;4.27;;;3.20;81.10;;;;;;5113313;28;20443;-67
2021/04/14 00:04:29;;;;;;;7.83;4.07;;;3.20;81.20;;;;;;5113855;28;20350;-67
2021/04/14 00:07:06;;;;;;;12.57;4.10;;;3.20;81.30;;;;;;5113807;27;20303;-67
2021/04/14 00:09:32;;;;;;;13.33;4.27;;;3.20;81.20;;;;;;5114479;28;20075;-67
2021/04/14 00:11:58;;;;;;;10.53;4.07;;;3.20;81.20;;;;;;5113157;28;20352;-67
2021/04/14 00:14:26;;;;;;;6.83;3.70;;;3.30;81.30;;;;;;5114538;28;20047;-67
2021/04/14 00:16:52;;;;;;;10.40;3.47;;;3.40;81.20;;;;;;5113989;28;20289;-67
2021/04/14 00:19:18;;;;;;;8.27;4.40;;;3.40;81.10;;;;;;5113209;28;20285;-67
2021/04/14 00:21:43;;;;;;;7.77;3.73;;;3.40;81.20;;;;;;5113494;28;20362;-67
2021/04/14 00:24:13;;;;;;;7.43;4.27;;;3.40;81.40;;;;;;5113942;28;20069;-67
2021/04/14 00:26:39;;;;;;;6.60;3.80;;;3.40;81.30;;;;;;5113499;28;20082;-67
2021/04/14 00:29:04;;;;;;;9.47;4.23;;;3.40;81.20;;;;;;5113519;28;20336;-67
2021/04/14 00:31:37;;;;;;;11.40;3.97;;;3.50;81.10;;;;;;5113844;28;20103;-67
2021/04/14 00:34:11;;;;;;;6.67;3.47;;;3.50;81.10;;;;;;5112718;28;20197;-67
2021/04/14 00:36:38;;;;;;;6.47;3.97;;;3.50;81.10;;;;;;5113757;28;20301;-67
2021/04/14 00:39:10;;;;;;;7.40;3.83;;;3.50;81.00;;;;;;5112701;28;20309;-67
2021/04/14 00:41:36;;;;;;;8.33;3.77;;;3.50;80.80;;;;;;5113717;28;20298;-67
2021/04/14 00:44:04;;;;;;;7.40;3.63;;;3.50;80.90;;;;;;5113078;28;20054;-67
2021/04/14 00:46:30;;;;;;;4.50;2.77;;;3.40;80.80;;;;;;5112667;28;20856;-67
2021/04/14 00:48:56;;;;;;;5.30;2.83;;;3.40;80.90;;;;;;5112750;28;20388;-67
2021/04/14 00:51:22;;;;;;;5.93;2.80;;;3.40;80.80;;;;;;5113567;28;20380;-67
2021/04/14 00:53:49;;;;;;;6.13;2.40;;;3.30;80.90;;;;;;5112749;28;20129;-67
2021/04/14 00:56:15;;;;;;;6.60;2.67;;;3.30;80.90;;;;;;5113377;28;20777;-67
2021/04/14 00:58:41;;;;;;;11.47;2.47;;;3.30;80.90;;;;;;5113260;28;20305;-67
2021/04/14 01:01:07;;;;;;;4.13;2.17;;;3.30;80.90;;;;;;5112446;28;20816;-67
2021/04/14 01:03:35;;;;;;;5.23;2.23;;;3.20;80.80;;;;;;5113297;28;20052;-67
2021/04/14 01:06:24;;;;;;;3.17;1.70;;;3.30;80.90;;;;;;5112774;28;20301;-67
2021/04/14 01:08:50;;;;;;;4.10;1.37;;;3.30;80.90;;;;;;5112189;28;20298;-67
2021/04/14 01:11:17;;;;;;;2.53;1.43;;;3.30;81.60;;;;;;5112672;28;20349;-67
2021/04/14 01:13:44;;;;;;;1.73;1.20;;;3.30;80.60;;;;;;5112790;28;20130;-67
2021/04/14 01:16:10;;;;;;;2.30;1.37;;;3.30;80.50;;;;;;5111937;28;20302;-67
2021/04/14 01:18:38;;;;;;;1.67;1.43;;;3.30;80.50;;;;;;5112843;28;20767;-66
2021/04/14 01:21:07;;;;;;;2.40;1.40;;;3.30;80.30;;;;;;5111540;28;20300;-67
2021/04/14 01:23:33;;;;;;;1.90;1.20;;;3.30;80.20;;;;;;5112959;28;20301;-67
2021/04/14 01:25:59;;;;;;;2.87;1.50;;;3.30;80.20;;;;;;5112255;28;20662;-66
2021/04/14 01:28:31;;;;;;;3.20;1.37;;;3.30;80.10;;;;;;5111797;28;21025;-67
2021/04/14 01:30:57;;;;;;;;;;;3.30;80.20;;;;;;5112583;28;20290;-67
2021/04/14 01:33:25;;;;;;;2.47;1.77;;;3.30;80.30;;;;;;5112733;28;19964;-67
2021/04/14 01:35:52;;;;;;;4.47;1.73;;;3.20;79.90;;;;;;5111685;28;20425;-67
2021/04/14 01:38:18;;;;;;;4.47;1.80;;;3.20;79.90;;;;;;5112219;28;20365;-67
2021/04/14 01:40:44;;;;;;;3.93;1.47;;;3.20;80.00;;;;;;5112108;28;20297;-67
2021/04/14 01:43:10;;;;;;;2.37;1.60;;;3.20;80.10;;;;;;5111269;28;20460;-67
2021/04/14 01:45:42;;;;;;;6.77;1.70;;;3.10;80.10;;;;;;5112708;28;20388;-67
2021/04/14 01:48:09;;;;;;;1.83;1.13;;;3.10;80.10;;;;;;5112348;28;20116;-67
2021/04/14 01:50:35;;;;;;;2.97;0.90;;;3.10;80.30;;;;;;5111796;28;20297;-67
2021/04/14 01:53:02;;;;;;;2.23;1.40;;;3.00;80.40;;;;;;5111702;28;20325;-67
2021/04/14 01:55:29;;;;;;;2.37;1.10;;;3.00;80.50;;;;;;5112279;28;20339;-66
2021/04/14 01:57:56;;;;;;;4.87;1.00;;;3.00;80.50;;;;;;5111199;28;20298;-67
2021/04/14 02:00:35;;;;;;;2.00;1.10;;;3.00;80.40;;;;;;5112381;28;20360;-67
2021/04/14 02:03:02;;;;;;;1.97;1.03;;;3.00;80.30;;;;;;5111754;28;20312;-67
2021/04/14 02:05:31;;;;;;;2.00;1.30;;;3.00;80.40;;;;;;5111437;28;20304;-68
2021/04/14 02:07:57;;;;;;;4.17;1.50;;;3.00;80.30;;;;;;5111324;28;20293;-67
2021/04/14 02:10:26;;;;;;;2.97;1.20;;;3.00;81.50;;;;;;5111267;28;20320;-67
2021/04/14 02:12:51;;;;;;;3.17;1.73;;;3.00;80.50;;;;;;5111986;28;20386;-67
2021/04/14 02:15:21;;;;;;;1.20;1.10;;;3.00;80.60;;;;;;5111919;28;20717;-67
2021/04/14 02:18:07;;;;;;;3.77;1.47;;;3.10;80.80;;;;;;5110323;28;20047;-67
2021/04/14 02:20:34;;;;;;;2.13;1.47;;;3.10;80.70;;;;;;5111738;28;20662;-66
2021/04/14 02:23:20;;;;;;;3.53;1.10;;;3.10;80.60;;;;;;5111336;28;20293;-67
2021/04/14 02:26:12;;;;;;;4.57;2.70;;;3.00;80.50;;;;;;5109754;28;20650;-67
2021/04/14 02:28:38;;;;;;;3.10;1.48;;;3.00;80.50;;;;;;5111919;28;20308;-67
2021/04/14 02:31:05;;;;;;;3.07;1.40;;;3.00;80.60;;;;;;5111413;28;20044;-67
2021/04/14 02:33:32;;;;;;;3.10;1.43;;;3.00;80.70;;;;;;5111286;28;20314;-67
2021/04/14 02:35:58;;;;;;;4.80;3.03;;;2.90;80.70;;;;;;5111340;28;20616;-67
2021/04/14 02:38:25;;;;;;;3.47;2.30;;;2.80;80.80;;;;;;5111567;28;20380;-67
2021/04/14 02:41:00;;;;;;;2.27;2.00;;;2.80;81.00;;;;;;5111478;28;20457;-67
2021/04/14 02:43:47;;;;;;;3.03;1.50;;;2.80;81.10;;;;;;5110695;28;20383;-67
2021/04/14 02:46:13;;;;;;;5.60;1.53;;;2.70;81.30;;;;;;5110699;28;20794;-67
2021/04/14 02:48:38;;;;;;;6.37;1.70;;;2.70;81.40;;;;;;5111668;28;20300;-67
2021/04/14 02:51:24;;;;;;;2.57;1.47;;;2.80;81.50;;;;;;5110818;28;20138;-67
2021/04/14 02:53:50;;;;;;;2.63;1.27;;;2.80;81.40;;;;;;5110565;28;20396;-67
2021/04/14 02:56:16;;;;;;;4.13;1.40;;;2.80;81.40;;;;;;5111519;28;20039;-67
2021/04/14 02:58:42;;;;;;;4.47;2.00;;;2.80;81.40;;;;;;5111472;28;20342;-67
2021/04/14 03:01:08;;;;;;;7.03;2.47;;;2.80;81.40;;;;;;5110688;28;20047;-67
2021/04/14 03:03:33;;;;;;;4.57;1.97;;;2.80;81.40;;;;;;5111617;28;20413;-67
2021/04/14 03:06:04;;;;;;;2.75;1.42;;;2.80;81.70;;;;;;5110931;28;20108;-67
2021/04/14 03:08:30;;;;;;;2.47;1.80;;;2.80;81.60;;;;;;5110604;28;20128;-67
2021/04/14 03:10:56;;;;;;;4.57;1.83;;;2.70;82.50;;;;;;5110948;28;20756;-67
2021/04/14 03:13:23;;;;;;;3.77;2.07;;;2.70;81.70;;;;;;5111498;28;20139;-67
2021/04/14 03:15:49;;;;;;;5.53;1.70;;;2.80;81.70;;;;;;5110223;28;20443;-66
2021/04/14 03:18:16;;;;;;;1.80;1.43;;;2.80;81.70;;;;;;5110772;28;20781;-66
2021/04/14 03:20:44;;;;;;;3.40;1.70;;;2.80;81.80;;;;;;5109903;28;20309;-66
2021/04/14 03:23:11;;;;;;;3.00;1.80;;;2.80;81.80;;;;;;5110860;28;20320;-66
2021/04/14 03:25:57;;;;;;;3.27;1.53;;;2.80;81.90;;;;;;5110004;28;20361;-66
2021/04/14 03:28:23;;;;;;;4.30;1.33;;;2.80;81.80;;;;;;5109519;28;20846;-66
2021/04/14 03:30:49;;;;;;;4.90;1.60;;;2.80;81.80;;;;;;5110459;28;20059;-66
2021/04/14 03:33:16;;;;;;;4.05;1.55;;;2.80;81.90;;;;;;5108072;28;20325;-66
2021/04/14 03:35:41;;;;;;;1.73;1.20;;;2.80;81.90;;;;;;5109837;28;20044;-66
2021/04/14 03:38:07;;;;;;;3.23;1.43;;;2.80;81.90;;;;;;5113935;28;20293;-67
2021/04/14 03:40:53;;;;;;;3.53;1.43;;;2.80;82.10;;;;;;5113127;28;20066;-66
2021/04/14 03:43:19;;;;;;;2.03;1.00;;;2.70;82.20;;;;;;5113684;28;20771;-66
2021/04/14 03:45:48;;;;;;;6.17;1.87;;;2.70;82.20;;;;;;5113279;28;20407;-67
2021/04/14 03:48:14;;;;;;;1.53;1.20;;;2.70;82.40;;;;;;5112998;28;20394;-67
2021/04/14 03:50:40;;;;;;;2.53;1.00;;;2.70;82.50;;;;;;5113976;28;20301;-67
2021/04/14 03:53:15;;;;;;;2.07;1.00;;;2.70;82.60;;;;;;5113904;28;20404;-67
2021/04/14 03:55:41;;;;;;;2.40;0.80;;;2.70;82.80;;;;;;5112499;28;20048;-67
2021/04/14 03:58:08;;;;;;;2.03;0.70;;;2.70;83.10;;;;;;5113117;28;20293;-67
2021/04/14 04:00:34;;;;;;;2.30;0.80;;;2.70;83.00;;;;;;5114299;28;20298;-67
2021/04/14 04:02:59;;;;;;;3.80;1.03;;;2.70;83.10;;;;;;5111518;28;20297;-67
2021/04/14 04:05:26;;;;;;;2.63;0.80;;;2.80;83.20;;;;;;5113945;28;20304;-67
2021/04/14 04:08:11;;;;;;;3.03;1.20;;;2.90;83.20;;;;;;5112682;28;20156;-67
2021/04/14 04:10:37;;;;;;;3.60;0.97;;;2.90;83.10;;;;;;5113426;28;20305;-67
2021/04/14 04:13:04;;;;;;;3.47;1.10;;;3.00;83.00;;;;;;5113455;28;20666;-67
2021/04/14 04:15:31;;;;;;;1.57;0.87;;;3.00;83.00;;;;;;5112797;28;20048;-67
2021/04/14 04:17:57;;;;;;;3.53;1.03;;;3.00;83.00;;;;;;5112803;28;20801;-67
2021/04/14 04:20:43;;;;;;;2.40;1.23;;;3.00;83.00;;;;;;5111656;28;20278;-67
2021/04/14 04:23:10;;;;;;;3.03;1.13;;;3.10;83.20;;;;;;5113947;28;20300;-67
2021/04/14 04:25:36;;;;;;;2.80;1.47;;;3.10;84.20;;;;;;5113180;28;20293;-67
2021/04/14 04:28:02;;;;;;;2.27;1.30;;;3.10;83.00;;;;;;5113348;28;20293;-67
2021/04/14 04:30:29;;;;;;;1.70;1.13;;;3.10;83.10;;;;;;5113967;28;20082;-67
2021/04/14 04:32:55;;;;;;;4.50;1.43;;;3.00;83.20;;;;;;5112510;28;20309;-67
2021/04/14 04:35:22;;;;;;;5.13;2.20;;;3.10;83.40;;;;;;5113606;28;20381;-67
2021/04/14 04:37:48;;;;;;;5.53;2.30;;;3.00;83.30;;;;;;5113391;28;20301;-67
2021/04/14 04:40:19;;;;;;;3.93;2.00;;;3.10;83.30;;;;;;5112829;28;20646;-66
2021/04/14 04:42:46;;;;;;;3.33;1.80;;;3.10;83.40;;;;;;5111113;28;20386;-66
2021/04/14 04:45:13;;;;;;;4.60;1.83;;;3.10;83.20;;;;;;5110937;28;20107;-66
2021/04/14 04:47:58;;;;;;;3.97;1.80;;;3.10;83.20;;;;;;5109872;28;20266;-67
2021/04/14 04:50:29;;;;;;;4.73;1.70;;;3.10;83.00;;;;;;5113299;28;20303;-66
2021/04/14 04:53:07;;;;;;;3.33;1.60;;;3.10;83.00;;;;;;5109867;28;20047;-66
2021/04/14 04:55:33;;;;;;;3.23;1.43;;;3.20;83.10;;;;;;5110913;28;20296;-66
2021/04/14 04:57:59;;;;;;;3.20;1.37;;;3.20;83.00;;;;;;5112593;28;20298;-66
2021/04/14 05:00:25;;;;;;;1.70;1.00;;;3.10;83.00;;;;;;5112545;27;20142;-66
2021/04/14 05:02:53;;;;;;;1.80;1.37;;;3.20;83.10;;;;;;5110378;28;20047;-66
2021/04/14 05:05:25;;;;;;;6.17;1.40;;;3.10;83.10;;;;;;5112602;28;20293;-66
2021/04/14 05:07:51;;;;;;;;;;;3.10;83.00;;;;;;5111108;28;20380;-67
2021/04/14 05:10:17;;;;;;;3.60;1.33;;;3.20;83.30;;;;;;5112333;28;20453;-67
2021/04/14 05:13:05;;;;;;;4.80;2.10;;;3.20;83.00;;;;;;5108733;28;20088;-67
2021/04/14 05:15:35;;;;;;;2.90;1.90;;;3.20;82.90;;;;;;5112441;28;20292;-67
2021/04/14 05:18:01;;;;;;;3.37;2.10;;;3.10;82.90;;;;;;5112015;28;20644;-67
2021/04/14 05:20:28;;;;;;;6.10;2.73;;;3.10;83.00;;;;;;5111865;27;20711;-67
2021/04/14 05:22:55;;;;;;;8.43;2.33;;;3.10;83.20;;;;;;5112554;28;20305;-67
2021/04/14 05:25:24;;;;;;;2.70;1.80;;;3.10;83.40;;;;;;5112655;28;20290;-67
2021/04/14 05:27:52;;;;;;;3.73;1.97;;;3.10;83.40;;;;;;5111636;28;20289;-67
2021/04/14 05:30:19;;;;;;;2.23;1.63;;;3.00;83.40;;;;;;5111151;28;20293;-67
2021/04/14 05:32:45;;;;;;;2.93;2.30;;;3.00;83.60;;;;;;5111223;28;20316;-67
2021/04/14 05:35:13;;;;;;;5.83;2.00;;;3.00;83.80;;;;;;5111646;28;20297;-66
2021/04/14 05:37:39;;;;;;;5.43;3.00;;;3.00;84.00;;;;;;5109700;28;20376;-67
2021/04/14 05:40:05;;;;;;;6.07;3.13;;;3.10;84.30;;;;;;5111882;28;20381;-67
2021/04/14 05:42:40;;;;;;;7.17;3.70;;;3.10;84.20;;;;;;5111415;28;20058;-67
2021/04/14 05:45:11;;;;;;;7.10;4.20;;;3.20;84.40;;;;;;5111991;28;20827;-68
2021/04/14 05:47:37;;;;;;;5.50;3.20;;;3.30;84.30;;;;;;5112471;28;20392;-67
2021/04/14 05:50:07;;;;;;;7.57;3.20;;;3.40;84.00;;;;;;5110850;28;20832;-68
2021/04/14 05:52:33;;;;;;;4.83;2.63;;;3.50;83.90;;;;;;5112364;28;20058;-68
2021/04/14 05:54:59;;;;;;;5.53;3.37;;;3.50;83.80;;;;;;5111624;28;20285;-67
2021/04/14 05:57:25;;;;;;;7.47;3.60;;;3.50;83.70;;;;;;5111300;28;20254;-67
2021/04/14 05:59:50;;;;;;;5.33;3.07;;;3.50;83.70;;;;;;5111388;28;20490;-67
2021/04/14 06:02:16;;;;;;;5.47;2.53;;;3.70;84.00;;;;;;5111788;28;20044;-67
2021/04/14 06:04:42;;;;;;;6.30;2.33;;;3.90;84.10;;;;;;5111088;28;20082;-67
2021/04/14 06:07:08;;;;;;;5.43;2.30;;;4.20;83.60;;;;;;5111655;28;20047;-67
2021/04/14 06:09:34;;;;;;;3.60;2.10;;;4.30;83.10;;;;;;5111332;28;20043;-68
2021/04/14 06:11:59;;;;;;;4.83;2.00;;;4.60;83.40;;;;;;5111046;28;20136;-67
2021/04/14 06:14:25;;;;;;;2.33;1.73;;;5.00;82.70;;;;;;5111631;28;20492;-66
2021/04/14 06:16:52;;;;;;;2.57;1.40;;;5.20;81.40;;;;;;5110794;28;20419;-66
2021/04/14 06:19:18;;;;;;;3.63;1.43;;;5.30;80.60;;;;;;5111463;28;20122;-65
2021/04/14 06:21:44;;;;;;;2.53;1.43;;;5.30;80.50;;;;;;5111343;28;20298;-66
2021/04/14 06:24:29;;;;;;;3.40;1.53;;;5.40;80.30;;;;;;5110113;28;20120;-66
2021/04/14 06:26:58;;;;;;;3.63;1.60;;;5.50;79.60;;;;;;5111199;28;20297;-67
2021/04/14 06:29:23;;;;;;;4.03;1.60;;;5.80;79.10;;;;;;5111779;28;20043;-66
2021/04/14 06:31:52;;;;;;;6.67;1.60;;;5.70;77.80;;;;;;5110434;28;20293;-66
2021/04/14 06:34:23;;;;;;;4.33;1.47;;;5.80;77.80;;;;;;5110451;28;20654;-66
2021/04/14 06:36:53;;;;;;;7.73;2.07;;;5.80;77.70;;;;;;5110679;28;20292;-66
2021/04/14 06:39:21;;;;;;;5.57;1.73;;;5.80;77.80;;;;;;5110164;28;20301;-68
2021/04/14 06:42:05;;;;;;;2.40;1.30;;;5.90;77.80;;;;;;5110962;28;20334;-67
2021/04/14 06:44:49;;;;;;;8.33;2.30;;;6.00;77.30;;;;;;5108493;28;20297;-67
2021/04/14 06:47:32;;;;;;;5.30;1.60;;;6.00;76.80;;;;;;5108731;28;20671;-67
2021/04/14 06:50:04;;;;;;;2.83;1.37;;;6.00;77.00;;;;;;5108731;28;20294;-67
2021/04/14 06:52:43;;;;;;;4.00;1.60;;;6.10;76.60;;;;;;5110148;28;20666;-67
2021/04/14 06:55:15;;;;;;;3.40;1.37;;;6.40;76.30;;;;;;5110676;28;20396;-68
2021/04/14 06:57:53;;;;;;;5.13;1.90;;;6.60;75.70;;;;;;5110433;28;20293;-67
2021/04/14 07:00:28;;;;;;;4.47;1.60;;;6.70;75.20;;;;;;5109571;28;20316;-68
2021/04/14 07:03:12;;;;;;;4.80;1.47;;;6.70;74.70;;;;;;5110496;28;20302;-67
2021/04/14 07:05:45;;;;;;;4.17;1.40;;;6.80;73.90;;;;;;5109836;28;20331;-67
2021/04/14 07:08:23;;;;;;;1.80;1.27;;;6.70;74.70;;;;;;5109206;28;20320;-67
2021/04/14 07:10:54;;;;;;;2.33;1.40;;;6.90;74.80;;;;;;5109630;28;20362;-68
2021/04/14 07:13:20;;;;;;;5.87;1.30;;;7.00;74.80;;;;;;5113811;28;20309;-68
2021/04/14 07:15:51;;;;;;;5.67;1.77;;;7.10;74.60;;;;;;5114203;28;20778;-67
2021/04/14 07:18:24;;;;;;;4.77;1.93;;;7.20;74.30;;;;;;5114183;28;20300;-67
2021/04/14 07:20:57;;;;;;;4.00;1.30;;;7.20;73.80;;;;;;5111577;28;20293;-67
2021/04/14 07:23:31;;;;;;;4.90;1.43;;;7.30;73.40;;;;;;5114528;28;20297;-67
2021/04/14 07:26:08;;;;;;;4.67;2.00;;;7.40;73.70;;;;;;5113692;28;20357;-67
2021/04/14 07:29:18;;;;;;;3.57;1.60;;;7.80;72.90;;;;;;5112610;28;20301;-68
2021/04/14 07:32:13;;;;;;;3.50;1.30;;;8.00;71.50;;;;;;5100657;28;20309;-68
2021/04/14 07:35:13;;;;;;;4.63;1.70;;;8.10;72.30;;;;;;5113850;28;20633;-68
2021/04/14 07:37:46;;;;;;;4.57;1.57;;;8.30;70.00;;;;;;5113512;28;20784;-67
2021/04/14 07:40:26;;;;;;;3.23;1.30;;;8.50;70.50;;;;;;5114094;28;20293;-68
2021/04/14 07:43:22;;;;;;;4.70;1.60;;;8.60;71.40;;;;;;5111767;28;20293;-68
2021/04/14 07:45:51;;;;;;;5.20;1.30;;;8.70;69.60;;;;;;5108256;28;20315;-66
2021/04/14 07:48:21;;;;;;;4.87;1.20;;;8.90;70.20;;;;;;5112952;27;20676;-66
2021/04/14 07:51:10;;;;;;;7.27;1.33;;;9.10;68.30;;;;;;5111147;28;20849;-66
2021/04/14 07:53:41;;;;;;;4.77;1.50;;;9.10;66.90;;;;;;5112395;28;20615;-66
2021/04/14 07:56:07;;;;;;;8.65;1.42;;;9.10;67.10;;;;;;5110522;28;20376;-66
2021/04/14 07:58:34;;;;;;;3.53;1.00;;;9.30;66.50;;;;;;5114322;28;20564;-66
2021/04/14 08:01:22;;;;;;;5.50;1.40;;;9.40;65.80;;;;;;5113657;28;20089;-66
2021/04/14 08:03:49;;;;;;;9.37;2.00;;;9.90;65.70;;;;;;5112488;28;20649;-63
2021/04/14 08:06:23;;;;;;;6.77;1.57;;;10.30;64.50;;;;;;5113708;28;20511;-66
2021/04/14 08:08:49;;;;;;;4.37;1.40;;;10.80;64.00;;;;;;5113367;28;20130;-66
2021/04/14 08:11:29;;;;;;;3.80;1.30;;;11.50;63.50;;;;;;5112809;28;20048;-67
2021/04/14 08:14:39;;;;;;;6.37;0.97;;;12.10;60.60;;;;;;5113503;28;20051;-69
2021/04/14 08:17:20;;;;;;;5.50;1.00;;;12.30;59.30;;;;;;5106050;28;20081;-69
2021/04/14 08:19:47;;;;;;;7.73;1.33;;;11.80;57.20;;;;;;5096790;28;20048;-69
2021/04/14 08:22:15;;;;;;;6.20;1.27;;;11.40;59.50;;;;;;5112337;28;20108;-68
2021/04/14 08:24:48;;;;;;;7.30;1.10;;;11.70;59.50;;;;;;5112255;28;20047;-69
2021/04/14 08:27:22;;;;;;;5.20;1.20;;;12.20;58.20;;;;;;5113407;28;20130;-68
2021/04/14 08:30:09;;;;;;;4.97;1.07;;;12.20;58.00;;;;;;5113591;28;20043;-70
2021/04/14 08:32:43;;;;;;;6.57;1.10;;;12.00;57.70;;;;;;5102072;28;20113;-70
2021/04/14 08:35:30;;;;;;;6.77;1.27;;;12.20;57.50;;;;;;5113063;28;20120;-70
2021/04/14 08:38:26;;;;;;;5.60;0.93;;;12.40;56.40;;;;;;5111905;28;20051;-71
2021/04/14 08:40:54;;;;;;;5.83;0.70;;;12.60;56.60;;;;;;5113312;28;20051;-67
2021/04/14 08:43:42;;;;;;;4.33;0.80;;;12.50;59.00;;;;;;5113305;28;20493;-67
2021/04/14 08:46:12;;;;;;;10.03;1.17;;;11.90;57.40;;;;;;5112321;28;20050;-68
2021/04/14 08:48:39;;;;;;;3.33;0.70;;;11.00;59.40;;;;;;5113496;28;20051;-67
2021/04/14 08:51:05;;;;;;;4.67;0.90;;;10.10;60.40;;;;;;5112364;28;20092;-67
2021/04/14 08:53:39;;;;;;;2.27;0.80;;;9.20;62.10;;;;;;5111948;28;20054;-66
2021/04/14 08:56:05;;;;;;;5.90;0.90;;;8.50;63.80;;;;;;5111738;28;20059;-66
2021/04/14 08:58:31;;;;;;;5.97;0.80;;;8.10;64.80;;;;;;5111863;28;20475;-66
2021/04/14 09:00:58;;;;;;;3.93;0.70;;;8.00;65.30;;;;;;5111936;28;20556;-66
2021/04/14 09:03:27;;;;;;;1.83;0.70;;;7.90;66.50;;;;;;5112881;28;20052;-66
2021/04/14 09:05:53;;;;;;;2.43;0.77;;;7.80;65.20;;;;;;5111838;28;20327;-66
2021/04/14 09:08:22;;;;;;;3.33;0.73;;;7.70;65.80;;;;;;5112488;28;20305;-66
2021/04/14 09:11:00;;;;;;;1.63;0.70;;;7.70;66.10;;;;;;5111801;28;20286;-67
2021/04/14 09:13:45;;;;;;;1.67;0.67;;;7.70;65.50;;;;;;5112088;28;20352;-68
2021/04/14 09:16:13;;;;;;;1.07;0.70;;;7.80;65.40;;;;;;5112354;28;20388;-67
2021/04/14 09:18:46;;;;;;;4.33;0.93;;;7.80;64.60;;;;;;5112349;28;20358;-67
2021/04/14 09:21:21;;;;;;;3.97;1.00;;;7.90;64.20;;;;;;5110916;28;20305;-67
2021/04/14 09:23:57;;;;;;;3.07;0.70;;;8.10;64.10;;;;;;5111568;28;20349;-67
2021/04/14 09:26:31;;;;;;;3.87;0.83;;;8.60;64.10;;;;;;5111274;28;20301;-66
2021/04/14 09:28:57;;;;;;;3.03;0.73;;;9.20;63.00;;;;;;5111748;28;20298;-66
2021/04/14 09:31:51;;;;;;;3.27;1.13;;;9.60;62.60;;;;;;5112406;28;20710;-67
2021/04/14 09:34:34;;;;;;;3.87;0.80;;;10.00;60.40;;;;;;5110579;28;20301;-66
2021/04/14 09:37:06;;;;;;;6.47;1.10;;;10.10;61.00;;;;;;5111027;28;20308;-66
2021/04/14 09:39:52;;;;;;;3.57;0.83;;;10.10;60.10;;;;;;5111834;28;20309;-66
2021/04/14 09:42:31;;;;;;;3.93;1.10;;;10.00;59.20;;;;;;5110029;28;20381;-66
2021/04/14 09:45:10;;;;;;;7.57;1.30;;;9.80;58.80;;;;;;5109624;28;20335;-65
2021/04/14 09:47:36;;;;;;;6.67;0.83;;;9.80;59.10;;;;;;5109486;28;20309;-66
2021/04/14 09:50:33;;;;;;;6.17;1.10;;;9.80;59.00;;;;;;5109596;28;20323;-67
2021/04/14 09:53:18;;;;;;;9.50;1.67;;;9.70;58.20;;;;;;5109407;28;20782;-66
2021/04/14 09:55:49;;;;;;;5.10;1.10;;;9.80;59.10;;;;;;5108798;28;20304;-67
2021/04/14 09:58:24;;;;;;;5.47;1.20;;;10.00;59.10;;;;;;5110814;28;20058;-66
2021/04/14 10:01:10;;;;;;;6.87;1.20;;;10.30;58.20;;;;;;5111648;28;20082;-67
2021/04/14 10:03:41;;;;;;;3.83;0.90;;;10.20;58.40;;;;;;5111543;28;20054;-67
2021/04/14 10:06:11;;;;;;;6.43;1.20;;;10.20;57.70;;;;;;5111794;28;20048;-67
2021/04/14 10:08:39;;;;;;;5.30;1.10;;;10.30;57.30;;;;;;5111122;28;20515;-66
2021/04/14 10:11:05;;;;;;;5.90;1.60;;;10.20;57.00;;;;;;5111065;28;20071;-68
2021/04/14 10:13:32;;;;;;;6.13;1.10;;;10.00;56.10;;;;;;5111760;28;20459;-67
2021/04/14 10:16:00;;;;;;;6.30;1.10;;;9.60;56.60;;;;;;5110390;28;20454;-68
2021/04/14 10:18:36;;;;;;;5.30;1.30;;;9.50;57.70;;;;;;5111639;28;20051;-67
2021/04/14 10:21:18;;;;;;;7.53;1.70;;;9.40;57.40;;;;;;5110759;28;20707;-67
2021/04/14 10:23:45;;;;;;;2.38;0.90;;;9.40;57.70;;;;;;5110750;28;20050;-69
2021/04/14 10:26:12;;;;;;;6.10;1.20;;;9.40;58.10;;;;;;5111166;28;20048;-67
2021/04/14 10:28:42;;;;;;;3.70;1.10;;;9.50;58.30;;;;;;5111816;28;20290;-69
2021/04/14 10:31:14;;;;;;;6.23;1.10;;;9.70;58.60;;;;;;5110536;28;20301;-66
2021/04/14 10:33:42;;;;;;;2.22;0.80;;;9.90;57.20;;;;;;5111558;28;20317;-66
2021/04/14 10:36:21;;;;;;;6.37;1.13;;;9.90;56.30;;;;;;5111082;28;20122;-67
2021/04/14 10:38:47;;;;;;;7.07;1.33;;;9.70;56.20;;;;;;5110661;28;20289;-66
2021/04/14 10:41:30;;;;;;;4.07;0.77;;;9.40;56.90;;;;;;5111100;28;20666;-67
2021/04/14 10:43:57;;;;;;;4.33;1.00;;;9.20;56.70;;;;;;5110153;28;20329;-67
2021/04/14 10:46:32;;;;;;;3.53;1.10;;;9.00;56.80;;;;;;5113589;28;20293;-66
2021/04/14 10:49:01;;;;;;;7.80;0.80;;;8.90;57.00;;;;;;5114796;28;20297;-66
2021/04/14 10:51:39;;;;;;;4.20;0.90;;;8.90;56.90;;;;;;5114522;28;20296;-66
2021/04/14 10:54:08;;;;;;;3.57;0.90;;;8.90;55.20;;;;;;5114220;28;20317;-67
2021/04/14 10:56:34;;;;;;;4.80;0.97;;;8.90;55.50;;;;;;5114874;28;20696;-66
2021/04/14 10:59:06;;;;;;;2.67;0.77;;;9.10;55.20;;;;;;5113816;28;20294;-66
2021/04/14 11:01:37;;;;;;;2.35;0.55;;;9.20;55.20;;;;;;5114808;27;20067;-66
2021/04/14 11:04:26;;;;;;;2.45;0.93;;;9.20;51.60;;;;;;5114060;28;20059;-66
2021/04/14 11:06:55;;;;;;;3.20;0.80;;;8.90;51.30;;;;;;5112917;28;20043;-67
2021/04/14 11:09:22;;;;;;;3.53;0.80;;;8.90;53.30;;;;;;5112133;28;20297;-67
2021/04/14 11:11:49;;;;;;;4.47;0.90;;;9.10;53.40;;;;;;5113903;28;20304;-67
2021/04/14 11:14:17;;;;;;;2.93;0.83;;;9.40;52.90;;;;;;5114317;28;20454;-67
2021/04/14 11:16:46;;;;;;;6.00;1.03;;;9.60;52.30;;;;;;5114373;28;20293;-68
2021/04/14 11:19:25;;;;;;;1.83;0.63;;;9.50;52.70;;;;;;5113304;28;20301;-66
2021/04/14 11:22:10;;;;;;;5.07;0.70;;;9.20;52.20;;;;;;5112203;28;20305;-66
2021/04/14 11:24:49;;;;;;;2.33;0.60;;;9.10;50.80;;;;;;5113334;28;20804;-66
2021/04/14 11:27:16;;;;;;;3.93;0.93;;;9.20;51.10;;;;;;5112318;28;20313;-67
2021/04/14 11:29:42;;;;;;;2.97;1.10;;;9.30;51.30;;;;;;5113575;28;20297;-67
2021/04/14 11:32:23;;;;;;;2.93;1.00;;;9.50;52.20;;;;;;5113773;28;20630;-66
2021/04/14 11:35:02;;;;;;;2.30;0.70;;;9.70;51.00;;;;;;5112422;28;20767;-66
2021/04/14 11:37:40;;;;;;;4.40;1.20;;;9.80;50.20;;;;;;5111988;28;20316;-67
2021/04/14 11:40:08;;;;;;;4.93;1.10;;;9.90;50.40;;;;;;5093126;28;20432;-67
2021/04/14 11:42:55;;;;;;;3.87;0.97;;;10.00;50.10;;;;;;5107471;28;20882;-66
2021/04/14 11:45:32;;;;;;;5.07;0.90;;;9.90;49.10;;;;;;5113520;28;20301;-67
2021/04/14 11:48:15;;;;;;;1.93;1.00;;;9.90;49.10;;;;;;5113670;28;20305;-67
2021/04/14 11:50:43;;;;;;;2.97;0.70;;;10.00;50.50;;;;;;5113251;28;20298;-66
2021/04/14 11:53:23;;;;;;;3.30;0.80;;;10.10;51.50;;;;;;5113406;28;20313;-66
2021/04/14 11:55:50;;;;;;;2.87;0.97;;;10.00;51.80;;;;;;5113099;28;20332;-66
2021/04/14 11:58:37;;;;;;;3.27;1.10;;;10.00;51.80;;;;;;5112920;27;20293;-66
2021/04/14 12:01:03;;;;;;;3.07;0.70;;;10.00;49.50;;;;;;5113302;28;20293;-66
2021/04/14 12:03:38;;;;;;;3.80;0.57;;;10.00;48.90;;;;;;5113677;28;20826;-66
2021/04/14 12:06:05;;;;;;;2.00;1.47;;;10.10;48.60;;;;;;5113133;28;20305;-66
2021/04/14 12:08:30;;;;;;;4.43;0.70;;;10.20;49.70;;;;;;5111639;28;20309;-66
2021/04/14 12:10:57;;;;;;;1.17;0.63;;;10.20;48.50;;;;;;5112040;27;20298;-66
2021/04/14 12:13:23;;;;;;;1.50;0.70;;;10.00;48.20;;;;;;5112548;28;20055;-66
2021/04/14 12:15:50;;;;;;;4.27;0.80;;;9.80;49.30;;;;;;5111231;28;20798;-66
2021/04/14 12:18:16;;;;;;;6.60;0.97;;;9.80;49.10;;;;;;5112298;28;21064;-66
2021/04/14 12:20:42;;;;;;;3.33;0.73;;;9.90;48.80;;;;;;5112135;27;20384;-66
2021/04/14 12:23:08;;;;;;;2.83;1.00;;;10.00;48.40;;;;;;5112280;28;20305;-67
2021/04/14 12:25:34;;;;;;;3.33;0.83;;;9.90;49.30;;;;;;5113701;28;20339;-66
2021/04/14 12:28:00;;;;;;;4.80;0.90;;;10.00;50.60;;;;;;5113224;28;20055;-67
2021/04/14 12:30:27;;;;;;;3.13;0.83;;;10.10;50.80;;;;;;5113027;28;20047;-67
2021/04/14 12:32:53;;;;;;;2.50;0.90;;;10.10;49.70;;;;;;5112953;28;20047;-66
2021/04/14 12:35:21;;;;;;;4.07;0.80;;;10.00;50.30;;;;;;5113291;28;20746;-67
2021/04/14 12:37:47;;;;;;;3.67;0.77;;;10.10;51.10;;;;;;5112294;28;20301;-66
2021/04/14 12:40:14;;;;;;;2.13;0.70;;;10.30;49.70;;;;;;5113216;28;20289;-66
2021/04/14 12:42:39;;;;;;;2.93;0.90;;;10.40;49.30;;;;;;5113359;28;20442;-66
2021/04/14 12:45:21;;;;;;;2.83;0.80;;;10.50;49.20;;;;;;5112047;28;20293;-66
2021/04/14 12:47:46;;;;;;;2.50;0.73;;;10.60;49.30;;;;;;5112974;28;20050;-67
2021/04/14 12:50:12;;;;;;;2.47;0.63;;;10.60;49.20;;;;;;5112992;28;20134;-66
2021/04/14 12:52:44;;;;;;;5.67;0.83;;;10.50;48.70;;;;;;5111940;28;20043;-67
2021/04/14 12:55:17;;;;;;;2.33;0.80;;;10.20;48.00;;;;;;5112773;28;20503;-66
2021/04/14 12:57:43;;;;;;;5.70;1.20;;;10.10;46.20;;;;;;5111876;28;20461;-66
2021/04/14 13:00:11;;;;;;;1.87;0.87;;;10.00;46.90;;;;;;5112717;28;20685;-67
2021/04/14 13:02:45;;;;;;;3.67;0.97;;;10.10;47.70;;;;;;5113093;28;20346;-67
2021/04/14 13:05:34;;;;;;;6.00;1.13;;;10.30;47.90;;;;;;5111761;28;20300;-66
2021/04/14 13:08:14;;;;;;;6.93;1.20;;;10.30;49.70;;;;;;5111267;28;20666;-67
2021/04/14 13:10:46;;;;;;;6.07;1.80;;;10.10;50.70;;;;;;5112551;28;20306;-66
2021/04/14 13:13:13;;;;;;;5.97;1.40;;;9.70;51.30;;;;;;5111025;27;20313;-67
2021/04/14 13:16:20;;;;;;;4.27;1.00;;;9.40;51.50;;;;;;5112634;28;20293;-67
2021/04/14 13:18:49;;;;;;;3.40;0.90;;;9.40;52.50;;;;;;5103765;28;20325;-67